Kingstown, North Carolina
Current Conditions -  °F | °C
As of 1:15 PM on Thursday 29 Jan 2015 (Local Time) from KEHO Reporting Station
Clear Clear  
Wind Chill: 42°   Ceiling: Unl
Heat Index: 47°   Visibility: 10mi
Dew Point: 21°   Wind: 13mph
Humidity: 35%   Direction: 210°SSW
Pressure: 30.21"   Gusts: 16mph
Location:  35.3693°N, 81.5992°W
Report Text: KEHO 291815Z AUTO 21011G14KT 170V230 10SM CLR 09/M06 A3021 RMK AO2 T00851061
Loading
Personal Weather Stations






























Interactive Weather Map New forecast layout! Learn more

10-Day Weather Forecast

Advertisements
Track Severe Weather on mobile